Last 24 Hour KALB Observations

Last 24 hours of surface weather observations from the Albany County Airport. Observations taken by the National Weather Service.


		
KALB 210451Z 21003KT 10SM CLR 17/14 A3015 RMK AO2 SLP209 T01720144 402720172=
KALB 210551Z 00000KT 10SM CLR 17/14 A3015 RMK AO2 SLP209 T01670144 10228 20167
 51010=
KALB 210651Z 00000KT 10SM FEW260 17/15 A3015 RMK AO2 SLP207 T01670150=
KALB 210751Z 00000KT 10SM FEW050 FEW260 17/14 A3016 RMK AO2 SLP212 T01670144=
KALB 210851Z 00000KT 10SM FEW050 FEW260 16/14 A3017 RMK AO2 SLP214 T01610144
 53005=
KALB 210951Z 00000KT 10SM FEW260 16/14 A3017 RMK AO2 SLP216 T01560139=
KALB 211051Z 00000KT 10SM FEW230 SCT260 16/15 A3018 RMK AO2 SLP217 SCT V BKN
 T01610150=
KALB 211151Z 18004KT 10SM FEW005 FEW230 BKN260 18/16 A3018 RMK AO2 SLP220 BKN V
 SCT T01830161 10183 20156 53006=
KALB 211251Z 18009KT 10SM FEW005 FEW230 SCT260 20/16 A3018 RMK AO2 SLP219 SCT V
 BKN T02000161=
KALB 211351Z 17006KT 10SM SCT260 22/17 A3017 RMK AO2 SLP215 T02220167=
KALB 211451Z 16005KT 10SM SCT230 SCT260 24/17 A3018 RMK AO2 SLP218 SCT260 V BKN
 T02440172 55002=
KALB 211551Z 17007KT 10SM FEW230 BKN260 26/18 A3016 RMK AO2 SLP210 BKN V SCT
 T02610178=
KALB 211651Z COR 12005KT 10SM FEW040 SCT230 SCT260 28/18 A3012 RMK AO2 SLP199
 SCT260 V BKN T02780178=
KALB 211751Z 18005KT 10SM FEW045 SCT230 BKN260 28/18 A3012 RMK AO2 SLP199 BKN V
 SCT T02830178 10294 20183 56019=
KALB 211851Z 18005KT 10SM FEW045 SCT230 SCT260 27/18 A3010 RMK AO2 SLP191
 T02720178=
KALB 211951Z 16008KT 10SM FEW045 SCT190 SCT260 29/17 A3009 RMK AO2 SLP188
 SCT190 V FEW T02890172=
KALB 212051Z 18007KT 10SM FEW045 FEW100 FEW190 29/18 A3007 RMK AO2 SLP182
 T02890183 56017=
KALB 212151Z 18005KT 10SM FEW045 FEW100 FEW190 28/19 A3006 RMK AO2 SLP176
 T02830189=
KALB 212251Z 17006KT 10SM FEW250 28/18 A3005 RMK AO2 SLP174 T02780183=
KALB 212351Z 18005KT 10SM FEW090 FEW250 27/19 A3005 RMK AO2 SLP176 T02670189
 10294 20267 55006=
KALB 220051Z 17006KT 10SM FEW055 FEW100 FEW250 26/19 A3006 RMK AO2 SLP177
 T02560194=
KALB 220151Z 17006KT 10SM FEW055 FEW100 SCT250 25/19 A3005 RMK AO2 SLP176
 T02500194=
KALB 220251Z 18006KT 10SM FEW047 BKN060 24/19 A3005 RMK AO2 SLP174 T02440194
 58002=
KALB 220351Z 18005KT 10SM FEW060 FEW260 23/19 A3005 RMK AO2 SLP174 T02330194=
KALB 220451Z 18003KT 10SM FEW260 22/19 A3004 RMK AO2 SLP170 T02170194 402940156=